sensor_id;sensor_type;location;lat;lon;timestamp;pressure;altitude;pressure_sealevel;temperature;humidity
5595;BME280;1003;48.002;7.788;2022-07-21T00:00:18;99208.59;;;20.00;100.00
5595;BME280;1003;48.002;7.788;2022-07-21T00:02:47;99209.44;;;20.01;100.00
5595;BME280;1003;48.002;7.788;2022-07-21T00:05:16;99211.84;;;20.04;100.00
5595;BME280;1003;48.002;7.788;2022-07-21T00:07:44;99213.41;;;20.06;100.00
5595;BME280;1003;48.002;7.788;2022-07-21T00:10:12;99208.00;;;20.12;100.00
5595;BME280;1003;48.002;7.788;2022-07-21T00:12:40;99206.13;;;20.16;100.00
5595;BME280;1003;48.002;7.788;2022-07-21T00:15:09;99222.97;;;20.20;100.00
5595;BME280;1003;48.002;7.788;2022-07-21T00:17:37;99218.69;;;20.21;100.00
5595;BME280;1003;48.002;7.788;2022-07-21T00:20:07;99212.75;;;20.20;100.00
5595;BME280;1003;48.002;7.788;2022-07-21T00:22:36;99213.78;;;20.16;100.00
5595;BME280;1003;48.002;7.788;2022-07-21T00:25:04;99207.25;;;20.10;100.00
5595;BME280;1003;48.002;7.788;2022-07-21T00:27:31;99201.34;;;20.10;100.00
5595;BME280;1003;48.002;7.788;2022-07-21T00:29:58;99196.31;;;20.08;100.00
5595;BME280;1003;48.002;7.788;2022-07-21T00:32:27;99197.78;;;20.12;100.00
5595;BME280;1003;48.002;7.788;2022-07-21T00:34:54;99205.63;;;20.09;100.00
5595;BME280;1003;48.002;7.788;2022-07-21T00:37:21;99199.16;;;20.02;100.00
5595;BME280;1003;48.002;7.788;2022-07-21T00:39:51;99205.16;;;20.01;100.00
5595;BME280;1003;48.002;7.788;2022-07-21T00:42:22;99206.13;;;19.99;100.00
5595;BME280;1003;48.002;7.788;2022-07-21T00:44:50;99207.16;;;19.95;100.00
5595;BME280;1003;48.002;7.788;2022-07-21T00:47:19;99206.66;;;19.88;100.00
5595;BME280;1003;48.002;7.788;2022-07-21T00:49:47;99209.41;;;19.83;100.00
5595;BME280;1003;48.002;7.788;2022-07-21T00:52:14;99213.91;;;19.78;100.00
5595;BME280;1003;48.002;7.788;2022-07-21T00:54:42;99211.56;;;19.74;100.00
5595;BME280;1003;48.002;7.788;2022-07-21T00:57:11;99207.28;;;19.74;100.00
5595;BME280;1003;48.002;7.788;2022-07-21T00:59:40;99211.66;;;19.72;100.00
5595;BME280;1003;48.002;7.788;2022-07-21T01:02:08;99217.66;;;19.71;100.00
5595;BME280;1003;48.002;7.788;2022-07-21T01:04:35;99206.63;;;19.71;100.00
5595;BME280;1003;48.002;7.788;2022-07-21T01:07:05;99206.41;;;19.75;100.00
5595;BME280;1003;48.002;7.788;2022-07-21T01:09:33;99194.63;;;19.73;100.00
5595;BME280;1003;48.002;7.788;2022-07-21T01:12:03;99200.53;;;19.73;100.00
5595;BME280;1003;48.002;7.788;2022-07-21T01:14:33;99211.72;;;19.71;100.00
5595;BME280;1003;48.002;7.788;2022-07-21T01:17:02;99209.22;;;19.69;100.00
5595;BME280;1003;48.002;7.788;2022-07-21T01:19:30;99207.78;;;19.63;100.00
5595;BME280;1003;48.002;7.788;2022-07-21T01:21:59;99209.84;;;19.55;100.00
5595;BME280;1003;48.002;7.788;2022-07-21T01:24:26;99212.50;;;19.54;100.00
5595;BME280;1003;48.002;7.788;2022-07-21T01:26:53;99211.59;;;19.55;100.00
5595;BME280;1003;48.002;7.788;2022-07-21T01:29:21;99206.53;;;19.53;100.00
5595;BME280;1003;48.002;7.788;2022-07-21T01:31:49;99198.06;;;19.53;100.00
5595;BME280;1003;48.002;7.788;2022-07-21T01:34:17;99195.59;;;19.51;100.00
5595;BME280;1003;48.002;7.788;2022-07-21T01:36:45;99198.06;;;19.53;100.00
5595;BME280;1003;48.002;7.788;2022-07-21T01:39:14;99206.63;;;19.52;100.00
5595;BME280;1003;48.002;7.788;2022-07-21T01:41:59;99199.88;;;19.51;100.00
5595;BME280;1003;48.002;7.788;2022-07-21T01:44:26;99213.34;;;19.53;100.00
5595;BME280;1003;48.002;7.788;2022-07-21T01:46:53;99214.25;;;19.52;100.00
5595;BME280;1003;48.002;7.788;2022-07-21T01:49:21;99200.78;;;19.50;100.00
5595;BME280;1003;48.002;7.788;2022-07-21T01:51:49;99193.88;;;19.52;100.00
5595;BME280;1003;48.002;7.788;2022-07-21T01:54:18;99191.31;;;19.52;100.00
5595;BME280;1003;48.002;7.788;2022-07-21T01:56:45;99183.84;;;19.49;100.00
5595;BME280;1003;48.002;7.788;2022-07-21T01:59:12;99186.59;;;19.44;100.00
5595;BME280;1003;48.002;7.788;2022-07-21T02:01:40;99186.72;;;19.41;100.00
5595;BME280;1003;48.002;7.788;2022-07-21T02:04:07;99190.16;;;19.40;100.00
5595;BME280;1003;48.002;7.788;2022-07-21T02:06:34;99184.31;;;19.38;100.00
5595;BME280;1003;48.002;7.788;2022-07-21T02:09:02;99188.59;;;19.37;100.00
5595;BME280;1003;48.002;7.788;2022-07-21T02:11:30;99187.63;;;19.40;100.00
5595;BME280;1003;48.002;7.788;2022-07-21T02:13:57;99189.25;;;19.41;100.00
5595;BME280;1003;48.002;7.788;2022-07-21T02:16:25;99189.25;;;19.41;100.00
5595;BME280;1003;48.002;7.788;2022-07-21T02:18:52;99198.50;;;19.44;100.00
5595;BME280;1003;48.002;7.788;2022-07-21T02:21:20;99197.59;;;19.45;100.00
5595;BME280;1003;48.002;7.788;2022-07-21T02:23:47;99200.22;;;19.43;100.00
5595;BME280;1003;48.002;7.788;2022-07-21T02:26:14;99200.38;;;19.40;100.00
5595;BME280;1003;48.002;7.788;2022-07-21T02:28:42;99199.63;;;19.38;100.00
5595;BME280;1003;48.002;7.788;2022-07-21T02:31:09;99207.25;;;19.38;100.00
5595;BME280;1003;48.002;7.788;2022-07-21T02:33:37;99209.94;;;19.35;100.00
5595;BME280;1003;48.002;7.788;2022-07-21T02:36:05;99206.84;;;19.28;100.00
5595;BME280;1003;48.002;7.788;2022-07-21T02:38:32;99213.94;;;19.22;100.00
5595;BME280;1003;48.002;7.788;2022-07-21T02:40:59;99202.31;;;19.16;100.00
5595;BME280;1003;48.002;7.788;2022-07-21T02:43:26;99205.19;;;19.08;100.00
5595;BME280;1003;48.002;7.788;2022-07-21T02:45:54;99213.00;;;19.05;100.00
5595;BME280;1003;48.002;7.788;2022-07-21T02:48:21;99214.91;;;19.00;100.00
5595;BME280;1003;48.002;7.788;2022-07-21T02:50:49;99216.13;;;18.92;100.00
5595;BME280;1003;48.002;7.788;2022-07-21T02:53:19;99222.19;;;18.89;100.00
5595;BME280;1003;48.002;7.788;2022-07-21T02:55:49;99226.50;;;18.87;100.00
5595;BME280;1003;48.002;7.788;2022-07-21T02:58:20;99229.25;;;18.82;100.00
5595;BME280;1003;48.002;7.788;2022-07-21T03:00:51;99227.66;;;18.80;100.00
5595;BME280;1003;48.002;7.788;2022-07-21T03:03:22;99218.44;;;18.77;100.00
5595;BME280;1003;48.002;7.788;2022-07-21T03:05:50;99221.19;;;18.73;100.00
5595;BME280;1003;48.002;7.788;2022-07-21T03:08:21;99217.22;;;18.66;100.00
5595;BME280;1003;48.002;7.788;2022-07-21T03:10:49;99216.56;;;18.60;100.00
5595;BME280;1003;48.002;7.788;2022-07-21T03:13:17;99214.38;;;18.53;100.00
5595;BME280;1003;48.002;7.788;2022-07-21T03:15:44;99216.13;;;18.51;100.00
5595;BME280;1003;48.002;7.788;2022-07-21T03:18:11;99208.72;;;18.46;100.00
5595;BME280;1003;48.002;7.788;2022-07-21T03:20:44;99206.34;;;18.42;100.00
5595;BME280;1003;48.002;7.788;2022-07-21T03:23:11;99205.78;;;18.35;100.00
5595;BME280;1003;48.002;7.788;2022-07-21T03:25:39;99207.56;;;18.33;100.00
5595;BME280;1003;48.002;7.788;2022-07-21T03:28:06;99208.34;;;18.35;100.00
5595;BME280;1003;48.002;7.788;2022-07-21T03:30:34;99221.88;;;18.35;100.00
5595;BME280;1003;48.002;7.788;2022-07-21T03:33:01;99226.16;;;18.35;100.00
5595;BME280;1003;48.002;7.788;2022-07-21T03:35:29;99223.59;;;18.35;100.00
5595;BME280;1003;48.002;7.788;2022-07-21T03:37:59;99225.63;;;18.27;100.00
5595;BME280;1003;48.002;7.788;2022-07-21T03:40:30;99231.72;;;18.23;100.00
5595;BME280;1003;48.002;7.788;2022-07-21T03:43:01;99219.31;;;18.15;100.00
5595;BME280;1003;48.002;7.788;2022-07-21T03:45:30;99228.78;;;18.12;100.00
5595;BME280;1003;48.002;7.788;2022-07-21T03:47:58;99220.31;;;18.11;100.00
5595;BME280;1003;48.002;7.788;2022-07-21T03:50:26;99226.41;;;18.07;100.00
5595;BME280;1003;48.002;7.788;2022-07-21T03:52:54;99223.22;;;18.02;100.00
5595;BME280;1003;48.002;7.788;2022-07-21T03:55:22;99223.38;;;17.99;100.00
5595;BME280;1003;48.002;7.788;2022-07-21T03:57:52;99217.56;;;17.95;100.00
5595;BME280;1003;48.002;7.788;2022-07-21T04:00:28;99218.38;;;17.96;100.00
5595;BME280;1003;48.002;7.788;2022-07-21T04:02:56;99211.66;;;17.95;100.00
5595;BME280;1003;48.002;7.788;2022-07-21T04:05:25;99219.28;;;17.95;100.00
5595;BME280;1003;48.002;7.788;2022-07-21T04:07:53;99224.94;;;18.01;100.00
5595;BME280;1003;48.002;7.788;2022-07-21T04:10:24;99228.13;;;18.06;100.00
5595;BME280;1003;48.002;7.788;2022-07-21T04:12:53;99225.31;;;18.14;100.00
5595;BME280;1003;48.002;7.788;2022-07-21T04:15:20;99226.88;;;18.17;100.00
5595;BME280;1003;48.002;7.788;2022-07-21T04:17:47;99224.47;;;18.14;100.00
5595;BME280;1003;48.002;7.788;2022-07-21T04:20:16;99220.06;;;18.17;100.00
5595;BME280;1003;48.002;7.788;2022-07-21T04:22:45;99228.41;;;18.21;100.00
5595;BME280;1003;48.002;7.788;2022-07-21T04:25:14;99236.69;;;18.26;100.00
5595;BME280;1003;48.002;7.788;2022-07-21T04:27:43;99231.28;;;18.33;100.00
5595;BME280;1003;48.002;7.788;2022-07-21T04:30:14;99236.06;;;18.41;100.00
5595;BME280;1003;48.002;7.788;2022-07-21T04:32:41;99230.59;;;18.50;100.00
5595;BME280;1003;48.002;7.788;2022-07-21T04:35:10;99233.72;;;18.57;100.00
5595;BME280;1003;48.002;7.788;2022-07-21T04:37:38;99228.22;;;18.68;100.00
5595;BME280;1003;48.002;7.788;2022-07-21T04:40:08;99232.84;;;18.78;100.00
5595;BME280;1003;48.002;7.788;2022-07-21T04:42:36;99231.41;;;18.92;100.00
5595;BME280;1003;48.002;7.788;2022-07-21T04:45:07;99232.31;;;19.09;100.00
5595;BME280;1003;48.002;7.788;2022-07-21T04:47:43;99227.44;;;19.24;100.00
5595;BME280;1003;48.002;7.788;2022-07-21T04:50:13;99220.84;;;19.38;100.00
5595;BME280;1003;48.002;7.788;2022-07-21T04:52:40;99227.72;;;19.55;100.00
5595;BME280;1003;48.002;7.788;2022-07-21T04:55:09;99232.78;;;19.74;100.00
5595;BME280;1003;48.002;7.788;2022-07-21T04:57:38;99227.50;;;19.96;100.00
5595;BME280;1003;48.002;7.788;2022-07-21T05:00:10;99224.59;;;20.21;100.00
5595;BME280;1003;48.002;7.788;2022-07-21T05:02:38;99237.06;;;20.79;100.00
5595;BME280;1003;48.002;7.788;2022-07-21T05:05:07;99249.84;;;21.91;100.00
5595;BME280;1003;48.002;7.788;2022-07-21T05:07:35;99274.63;;;23.38;100.00
5595;BME280;1003;48.002;7.788;2022-07-21T05:10:05;99312.00;;;24.77;100.00
5595;BME280;1003;48.002;7.788;2022-07-21T05:12:32;99319.66;;;25.90;100.00
5595;BME280;1003;48.002;7.788;2022-07-21T05:15:00;99331.56;;;26.63;100.00
5595;BME280;1003;48.002;7.788;2022-07-21T05:17:28;99337.63;;;27.54;100.00
5595;BME280;1003;48.002;7.788;2022-07-21T05:19:55;99337.50;;;28.21;93.79
5595;BME280;1003;48.002;7.788;2022-07-21T05:22:23;99333.69;;;28.99;83.41
5595;BME280;1003;48.002;7.788;2022-07-21T05:24:50;99333.19;;;29.45;76.90
5595;BME280;1003;48.002;7.788;2022-07-21T05:27:17;99345.84;;;29.89;71.64
5595;BME280;1003;48.002;7.788;2022-07-21T05:29:44;99336.13;;;29.71;64.40
5595;BME280;1003;48.002;7.788;2022-07-21T05:32:11;99341.50;;;30.18;66.73
5595;BME280;1003;48.002;7.788;2022-07-21T05:34:40;99342.78;;;29.54;68.05
5595;BME280;1003;48.002;7.788;2022-07-21T05:37:07;99344.09;;;30.38;62.91
5595;BME280;1003;48.002;7.788;2022-07-21T05:39:34;99351.63;;;30.41;62.78
5595;BME280;1003;48.002;7.788;2022-07-21T05:42:01;99358.16;;;30.74;65.00
5595;BME280;1003;48.002;7.788;2022-07-21T05:44:28;99360.59;;;31.32;59.78
5595;BME280;1003;48.002;7.788;2022-07-21T05:46:55;99364.00;;;32.05;57.19
5595;BME280;1003;48.002;7.788;2022-07-21T05:49:23;99365.63;;;31.88;54.47
5595;BME280;1003;48.002;7.788;2022-07-21T05:51:51;99369.41;;;31.94;57.63
5595;BME280;1003;48.002;7.788;2022-07-21T05:54:19;99367.59;;;32.66;53.63
5595;BME280;1003;48.002;7.788;2022-07-21T05:56:46;99369.88;;;32.25;51.32
5595;BME280;1003;48.002;7.788;2022-07-21T05:59:13;99372.84;;;32.12;52.81
5595;BME280;1003;48.002;7.788;2022-07-21T06:01:40;99374.84;;;32.80;49.17
5595;BME280;1003;48.002;7.788;2022-07-21T06:04:07;99370.53;;;33.49;46.60
5595;BME280;1003;48.002;7.788;2022-07-21T06:06:34;99379.88;;;33.60;46.84
5595;BME280;1003;48.002;7.788;2022-07-21T06:09:02;99379.19;;;34.08;45.57
5595;BME280;1003;48.002;7.788;2022-07-21T06:11:30;99379.47;;;34.05;44.42
5595;BME280;1003;48.002;7.788;2022-07-21T06:13:57;99387.00;;;34.08;44.35
5595;BME280;1003;48.002;7.788;2022-07-21T06:16:24;99391.53;;;34.06;45.59
5595;BME280;1003;48.002;7.788;2022-07-21T06:18:51;99390.75;;;34.14;45.31
5595;BME280;1003;48.002;7.788;2022-07-21T06:21:18;99393.03;;;34.41;44.52
5595;BME280;1003;48.002;7.788;2022-07-21T06:23:45;99393.28;;;33.81;45.01
5595;BME280;1003;48.002;7.788;2022-07-21T06:26:14;99391.75;;;33.28;52.01
5595;BME280;1003;48.002;7.788;2022-07-21T06:28:41;99390.38;;;33.92;49.87
5595;BME280;1003;48.002;7.788;2022-07-21T06:31:08;99401.19;;;34.38;44.72
5595;BME280;1003;48.002;7.788;2022-07-21T06:33:35;99392.38;;;33.99;44.49
5595;BME280;1003;48.002;7.788;2022-07-21T06:36:02;99399.28;;;33.74;48.67
5595;BME280;1003;48.002;7.788;2022-07-21T06:38:29;99400.50;;;32.93;53.30
5595;BME280;1003;48.002;7.788;2022-07-21T06:40:57;99394.03;;;32.53;58.28
5595;BME280;1003;48.002;7.788;2022-07-21T06:43:25;99397.25;;;33.43;49.18
5595;BME280;1003;48.002;7.788;2022-07-21T06:45:52;99397.78;;;33.63;47.12
5595;BME280;1003;48.002;7.788;2022-07-21T06:48:20;99406.03;;;33.16;47.26
5595;BME280;1003;48.002;7.788;2022-07-21T06:50:48;99405.63;;;31.78;51.34
5595;BME280;1003;48.002;7.788;2022-07-21T06:53:15;99390.44;;;29.83;61.87
5595;BME280;1003;48.002;7.788;2022-07-21T06:55:42;99394.59;;;29.64;69.63
5595;BME280;1003;48.002;7.788;2022-07-21T06:58:11;99397.06;;;29.35;71.70
5595;BME280;1003;48.002;7.788;2022-07-21T07:00:40;99383.16;;;30.36;62.81
5595;BME280;1003;48.002;7.788;2022-07-21T07:03:07;99395.97;;;30.18;58.07
5595;BME280;1003;48.002;7.788;2022-07-21T07:05:35;99398.69;;;29.36;62.15
5595;BME280;1003;48.002;7.788;2022-07-21T07:08:03;99396.03;;;28.54;68.40
5595;BME280;1003;48.002;7.788;2022-07-21T07:10:31;99402.59;;;28.04;75.11
5595;BME280;1003;48.002;7.788;2022-07-21T07:12:58;99399.38;;;27.68;74.58
5595;BME280;1003;48.002;7.788;2022-07-21T07:15:26;99396.84;;;28.55;77.80
5595;BME280;1003;48.002;7.788;2022-07-21T07:17:55;99397.03;;;28.84;70.40
5595;BME280;1003;48.002;7.788;2022-07-21T07:20:23;99404.69;;;28.21;76.95
5595;BME280;1003;48.002;7.788;2022-07-21T07:22:50;99405.84;;;28.28;79.96
5595;BME280;1003;48.002;7.788;2022-07-21T07:25:18;99402.59;;;29.00;70.00
5595;BME280;1003;48.002;7.788;2022-07-21T07:27:46;99406.81;;;28.80;72.73
5595;BME280;1003;48.002;7.788;2022-07-21T07:30:14;99409.63;;;28.13;68.84
5595;BME280;1003;48.002;7.788;2022-07-21T07:32:42;99415.22;;;27.30;75.39
5595;BME280;1003;48.002;7.788;2022-07-21T07:35:11;99420.16;;;26.86;82.22
5595;BME280;1003;48.002;7.788;2022-07-21T07:37:40;99412.28;;;27.79;76.35
5595;BME280;1003;48.002;7.788;2022-07-21T07:40:11;99405.63;;;29.57;62.11
5595;BME280;1003;48.002;7.788;2022-07-21T07:42:39;99413.88;;;30.41;55.79
5595;BME280;1003;48.002;7.788;2022-07-21T07:45:08;99412.09;;;30.22;61.59
5595;BME280;1003;48.002;7.788;2022-07-21T07:47:36;99415.22;;;29.14;62.42
5595;BME280;1003;48.002;7.788;2022-07-21T07:50:06;99422.38;;;27.60;65.88
5595;BME280;1003;48.002;7.788;2022-07-21T07:52:36;99420.97;;;28.44;67.48
5595;BME280;1003;48.002;7.788;2022-07-21T07:55:04;99412.50;;;28.74;67.01
5595;BME280;1003;48.002;7.788;2022-07-21T07:57:33;99420.28;;;29.46;67.09
5595;BME280;1003;48.002;7.788;2022-07-21T08:00:03;99413.47;;;30.26;58.67
5595;BME280;1003;48.002;7.788;2022-07-21T08:02:30;99408.41;;;30.53;56.60
5595;BME280;1003;48.002;7.788;2022-07-21T08:04:57;99412.81;;;31.29;57.92
5595;BME280;1003;48.002;7.788;2022-07-21T08:07:24;99408.38;;;31.49;52.15
5595;BME280;1003;48.002;7.788;2022-07-21T08:09:52;99411.88;;;31.57;48.78
5595;BME280;1003;48.002;7.788;2022-07-21T08:12:20;99408.22;;;31.50;51.92
5595;BME280;1003;48.002;7.788;2022-07-21T08:14:47;99407.56;;;31.48;47.82
5595;BME280;1003;48.002;7.788;2022-07-21T08:17:14;99409.06;;;31.41;51.94
5595;BME280;1003;48.002;7.788;2022-07-21T08:19:42;99410.56;;;31.81;50.76
5595;BME280;1003;48.002;7.788;2022-07-21T08:22:09;99409.19;;;32.04;50.17
5595;BME280;1003;48.002;7.788;2022-07-21T08:24:37;99402.69;;;31.63;51.96
5595;BME280;1003;48.002;7.788;2022-07-21T08:27:06;99399.13;;;31.64;48.39
5595;BME280;1003;48.002;7.788;2022-07-21T08:29:33;99401.81;;;31.72;48.58
5595;BME280;1003;48.002;7.788;2022-07-21T08:32:00;99402.03;;;31.88;49.52
5595;BME280;1003;48.002;7.788;2022-07-21T08:34:28;99402.91;;;32.43;47.84
5595;BME280;1003;48.002;7.788;2022-07-21T08:36:58;99402.28;;;32.31;48.31
5595;BME280;1003;48.002;7.788;2022-07-21T08:39:25;99400.56;;;32.57;48.04
5595;BME280;1003;48.002;7.788;2022-07-21T08:41:52;99412.38;;;31.98;46.52
5595;BME280;1003;48.002;7.788;2022-07-21T08:44:22;99414.00;;;30.58;50.66
5595;BME280;1003;48.002;7.788;2022-07-21T08:46:51;99418.63;;;29.66;53.76
5595;BME280;1003;48.002;7.788;2022-07-21T08:49:21;99418.06;;;29.11;60.79
5595;BME280;1003;48.002;7.788;2022-07-21T08:51:49;99415.22;;;29.66;55.45
5595;BME280;1003;48.002;7.788;2022-07-21T08:54:17;99411.59;;;29.88;55.16
5595;BME280;1003;48.002;7.788;2022-07-21T08:56:44;99399.59;;;29.96;50.66
5595;BME280;1003;48.002;7.788;2022-07-21T08:59:11;99410.75;;;29.77;52.33
5595;BME280;1003;48.002;7.788;2022-07-21T09:01:40;99409.28;;;29.23;54.79
5595;BME280;1003;48.002;7.788;2022-07-21T09:04:24;99413.97;;;28.23;56.48
5595;BME280;1003;48.002;7.788;2022-07-21T09:06:56;99412.88;;;27.83;62.75
5595;BME280;1003;48.002;7.788;2022-07-21T09:09:25;99412.88;;;27.94;60.19
5595;BME280;1003;48.002;7.788;2022-07-21T09:11:53;99417.50;;;28.22;56.06
5595;BME280;1003;48.002;7.788;2022-07-21T09:14:24;99406.53;;;28.41;55.52
5595;BME280;1003;48.002;7.788;2022-07-21T09:16:56;99413.59;;;28.28;55.33
5595;BME280;1003;48.002;7.788;2022-07-21T09:19:25;99413.78;;;28.04;57.74
5595;BME280;1003;48.002;7.788;2022-07-21T09:21:55;99415.47;;;27.83;58.53
5595;BME280;1003;48.002;7.788;2022-07-21T09:24:26;99417.66;;;27.65;60.90
5595;BME280;1003;48.002;7.788;2022-07-21T09:27:10;99413.59;;;27.40;63.73
5595;BME280;1003;48.002;7.788;2022-07-21T09:29:44;99413.66;;;27.16;64.97
5595;BME280;1003;48.002;7.788;2022-07-21T09:32:23;99410.25;;;27.15;61.79
5595;BME280;1003;48.002;7.788;2022-07-21T09:34:53;99412.16;;;27.58;61.54
5595;BME280;1003;48.002;7.788;2022-07-21T09:37:22;99410.25;;;28.05;56.63
5595;BME280;1003;48.002;7.788;2022-07-21T09:39:53;99408.38;;;27.96;55.12
5595;BME280;1003;48.002;7.788;2022-07-21T09:42:24;99407.81;;;27.92;56.99
5595;BME280;1003;48.002;7.788;2022-07-21T09:44:55;99403.25;;;27.62;58.20
5595;BME280;1003;48.002;7.788;2022-07-21T09:47:26;99410.06;;;27.41;60.21
5595;BME280;1003;48.002;7.788;2022-07-21T09:49:56;99402.44;;;27.39;60.22
5595;BME280;1003;48.002;7.788;2022-07-21T09:52:29;99393.84;;;27.84;58.18
5595;BME280;1003;48.002;7.788;2022-07-21T09:55:00;99395.94;;;28.44;53.81
5595;BME280;1003;48.002;7.788;2022-07-21T09:57:28;99390.56;;;28.57;53.64
5595;BME280;1003;48.002;7.788;2022-07-21T09:59:56;99395.28;;;28.63;49.22
5595;BME280;1003;48.002;7.788;2022-07-21T10:02:28;99390.00;;;28.33;51.86
5595;BME280;1003;48.002;7.788;2022-07-21T10:04:59;99393.81;;;28.49;52.25
5595;BME280;1003;48.002;7.788;2022-07-21T10:07:27;99392.59;;;29.07;50.34
5595;BME280;1003;48.002;7.788;2022-07-21T10:09:56;99387.75;;;29.23;46.98
5595;BME280;1003;48.002;7.788;2022-07-21T10:12:25;99387.06;;;29.21;48.86
5595;BME280;1003;48.002;7.788;2022-07-21T10:14:54;99387.00;;;29.11;48.09
5595;BME280;1003;48.002;7.788;2022-07-21T10:17:23;99382.69;;;29.21;49.53
5595;BME280;1003;48.002;7.788;2022-07-21T10:20:03;99381.78;;;29.32;46.83
5595;BME280;1003;48.002;7.788;2022-07-21T10:22:49;99380.16;;;28.89;47.37
5595;BME280;1003;48.002;7.788;2022-07-21T10:25:20;99381.31;;;28.55;48.49
5595;BME280;1003;48.002;7.788;2022-07-21T10:28:15;99376.03;;;28.77;49.83
5595;BME280;1003;48.002;7.788;2022-07-21T10:30:46;99377.03;;;29.37;47.45
5595;BME280;1003;48.002;7.788;2022-07-21T10:33:16;99378.72;;;29.88;46.80
5595;BME280;1003;48.002;7.788;2022-07-21T10:35:46;99375.78;;;30.31;45.62
5595;BME280;1003;48.002;7.788;2022-07-21T10:38:27;99373.88;;;30.33;43.72
5595;BME280;1003;48.002;7.788;2022-07-21T10:40:56;99372.22;;;30.13;44.93
5595;BME280;1003;48.002;7.788;2022-07-21T10:43:41;99368.69;;;30.14;43.36
5595;BME280;1003;48.002;7.788;2022-07-21T10:46:38;99366.47;;;30.10;46.11
5595;BME280;1003;48.002;7.788;2022-07-21T10:49:08;99363.72;;;30.01;43.77
5595;BME280;1003;48.002;7.788;2022-07-21T10:51:38;99372.28;;;29.42;44.18
5595;BME280;1003;48.002;7.788;2022-07-21T10:54:24;99372.00;;;29.36;45.52
5595;BME280;1003;48.002;7.788;2022-07-21T10:57:27;99366.13;;;29.74;44.82
5595;BME280;1003;48.002;7.788;2022-07-21T11:00:33;99357.28;;;29.36;45.71
5595;BME280;1003;48.002;7.788;2022-07-21T11:03:06;99357.03;;;28.88;46.84
5595;BME280;1003;48.002;7.788;2022-07-21T11:06:17;99358.03;;;28.75;47.13
5595;BME280;1003;48.002;7.788;2022-07-21T11:08:49;99356.28;;;28.97;46.47
5595;BME280;1003;48.002;7.788;2022-07-21T11:11:19;99354.53;;;28.97;46.39
5595;BME280;1003;48.002;7.788;2022-07-21T11:14:15;99350.16;;;28.98;45.76
5595;BME280;1003;48.002;7.788;2022-07-21T11:17:12;99357.16;;;28.86;44.61
5595;BME280;1003;48.002;7.788;2022-07-21T11:19:50;99356.50;;;29.15;45.46
5595;BME280;1003;48.002;7.788;2022-07-21T11:22:21;99344.66;;;29.22;44.49
5595;BME280;1003;48.002;7.788;2022-07-21T11:24:52;99348.09;;;29.53;43.87
5595;BME280;1003;48.002;7.788;2022-07-21T11:27:23;99340.09;;;29.85;44.04
5595;BME280;1003;48.002;7.788;2022-07-21T11:29:54;99337.56;;;30.14;44.46
5595;BME280;1003;48.002;7.788;2022-07-21T11:32:22;99339.72;;;30.19;41.79
5595;BME280;1003;48.002;7.788;2022-07-21T11:34:52;99329.91;;;30.03;42.31
5595;BME280;1003;48.002;7.788;2022-07-21T11:37:29;99326.09;;;30.17;42.85
5595;BME280;1003;48.002;7.788;2022-07-21T11:39:58;99331.53;;;30.43;41.99
5595;BME280;1003;48.002;7.788;2022-07-21T11:42:27;99334.50;;;30.77;40.50
5595;BME280;1003;48.002;7.788;2022-07-21T11:44:57;99335.31;;;30.77;40.59
5595;BME280;1003;48.002;7.788;2022-07-21T11:47:24;99330.41;;;30.65;40.98
5595;BME280;1003;48.002;7.788;2022-07-21T11:49:55;99322.09;;;30.71;41.07
5595;BME280;1003;48.002;7.788;2022-07-21T11:52:26;99318.94;;;30.77;40.35
5595;BME280;1003;48.002;7.788;2022-07-21T11:54:55;99312.41;;;30.44;40.95
5595;BME280;1003;48.002;7.788;2022-07-21T11:57:26;99321.41;;;30.59;41.00
5595;BME280;1003;48.002;7.788;2022-07-21T11:59:56;99320.69;;;30.86;39.57
5595;BME280;1003;48.002;7.788;2022-07-21T12:02:26;99319.31;;;30.82;40.12
5595;BME280;1003;48.002;7.788;2022-07-21T12:04:55;99314.03;;;30.74;39.77
5595;BME280;1003;48.002;7.788;2022-07-21T12:07:27;99312.84;;;30.29;40.01
5595;BME280;1003;48.002;7.788;2022-07-21T12:09:57;99306.84;;;30.29;40.27
5595;BME280;1003;48.002;7.788;2022-07-21T12:12:31;99305.75;;;30.12;40.01
5595;BME280;1003;48.002;7.788;2022-07-21T12:15:13;99303.97;;;30.13;38.66
5595;BME280;1003;48.002;7.788;2022-07-21T12:17:44;99305.06;;;30.00;40.40
5595;BME280;1003;48.002;7.788;2022-07-21T12:20:13;99302.88;;;29.96;40.70
5595;BME280;1003;48.002;7.788;2022-07-21T12:22:43;99299.19;;;29.89;41.42
5595;BME280;1003;48.002;7.788;2022-07-21T12:25:14;99301.78;;;29.98;41.37
5595;BME280;1003;48.002;7.788;2022-07-21T12:27:45;99303.16;;;30.12;40.49
5595;BME280;1003;48.002;7.788;2022-07-21T12:30:33;99289.13;;;30.15;41.21
5595;BME280;1003;48.002;7.788;2022-07-21T12:33:07;99288.16;;;30.25;40.54
5595;BME280;1003;48.002;7.788;2022-07-21T12:35:35;99288.44;;;30.22;41.37
5595;BME280;1003;48.002;7.788;2022-07-21T12:38:07;99286.97;;;30.67;39.30
5595;BME280;1003;48.002;7.788;2022-07-21T12:40:38;99286.22;;;30.47;39.68
5595;BME280;1003;48.002;7.788;2022-07-21T12:43:12;99282.16;;;30.25;39.86
5595;BME280;1003;48.002;7.788;2022-07-21T12:45:53;99287.69;;;30.49;40.22
5595;BME280;1003;48.002;7.788;2022-07-21T12:48:24;99284.50;;;30.65;40.30
5595;BME280;1003;48.002;7.788;2022-07-21T12:51:11;99277.47;;;30.48;39.14
5595;BME280;1003;48.002;7.788;2022-07-21T12:53:44;99279.28;;;30.28;39.72
5595;BME280;1003;48.002;7.788;2022-07-21T12:56:15;99276.69;;;30.28;40.48
5595;BME280;1003;48.002;7.788;2022-07-21T12:58:45;99276.69;;;30.18;40.92
5595;BME280;1003;48.002;7.788;2022-07-21T13:01:13;99277.91;;;30.24;40.72
5595;BME280;1003;48.002;7.788;2022-07-21T13:03:40;99275.59;;;30.30;39.43
5595;BME280;1003;48.002;7.788;2022-07-21T13:06:08;99282.28;;;30.23;39.90
5595;BME280;1003;48.002;7.788;2022-07-21T13:08:37;99273.84;;;30.12;39.66
5595;BME280;1003;48.002;7.788;2022-07-21T13:11:06;99281.59;;;29.92;41.10
5595;BME280;1003;48.002;7.788;2022-07-21T13:13:33;99281.19;;;29.87;40.60
5595;BME280;1003;48.002;7.788;2022-07-21T13:16:03;99278.03;;;29.84;40.98
5595;BME280;1003;48.002;7.788;2022-07-21T13:18:30;99279.13;;;29.71;40.30
5595;BME280;1003;48.002;7.788;2022-07-21T13:20:57;99279.13;;;29.62;40.74
5595;BME280;1003;48.002;7.788;2022-07-21T13:23:25;99286.34;;;30.06;41.33
5595;BME280;1003;48.002;7.788;2022-07-21T13:25:52;99277.09;;;30.33;39.01
5595;BME280;1003;48.002;7.788;2022-07-21T13:28:19;99275.84;;;30.47;39.67
5595;BME280;1003;48.002;7.788;2022-07-21T13:30:46;99273.75;;;30.70;39.54